createdAt,value
2018-07-24T00:01:57.382Z,99.66
2018-07-24T00:05:01.644Z,99.59
2018-07-24T00:08:06.110Z,99.58
2018-07-24T00:11:10.376Z,99.86
2018-07-24T00:14:14.901Z,99.84
2018-07-24T00:17:19.156Z,99.62
2018-07-24T00:20:23.441Z,99.41
2018-07-24T00:23:27.721Z,99.55
2018-07-24T00:26:32.254Z,99.37
2018-07-24T00:29:36.784Z,99.40
2018-07-24T00:32:41.065Z,99.30
2018-07-24T00:35:45.990Z,99.45
2018-07-24T00:38:50.668Z,99.33
2018-07-24T00:41:54.952Z,99.25
2018-07-24T00:44:59.217Z,99.08
2018-07-24T00:48:03.569Z,99.51
2018-07-24T00:51:08.224Z,99.31
2018-07-24T00:54:12.550Z,98.79
2018-07-24T00:57:16.798Z,98.87
2018-07-24T01:00:22.040Z,99.17
2018-07-24T01:03:26.339Z,99.19
2018-07-24T01:06:31.316Z,98.84
2018-07-24T01:09:35.754Z,98.97
2018-07-24T01:12:40.366Z,99.28
2018-07-24T01:15:44.651Z,99.59
2018-07-24T01:18:48.971Z,99.32
2018-07-24T01:21:53.299Z,99.30
2018-07-24T01:24:57.644Z,98.93
2018-07-24T01:28:02.737Z,99.25
2018-07-24T01:31:07.063Z,99.06
2018-07-24T01:34:11.336Z,99.03
2018-07-24T01:37:15.640Z,99.00
2018-07-24T01:40:19.985Z,99.22
2018-07-24T01:43:24.429Z,99.53
2018-07-24T01:46:28.756Z,98.87
2018-07-24T01:49:33.325Z,99.07
2018-07-24T01:52:37.944Z,98.93
2018-07-24T01:55:42.346Z,99.22
2018-07-24T01:58:46.666Z,99.72
2018-07-24T02:01:51.006Z,99.53
2018-07-24T02:04:55.303Z,99.37
2018-07-24T02:07:59.712Z,99.10
2018-07-24T02:11:04.044Z,99.24
2018-07-24T02:14:08.666Z,99.20
2018-07-24T02:17:12.960Z,99.11
2018-07-24T02:20:17.225Z,99.20
2018-07-24T02:23:21.638Z,99.27
2018-07-24T02:26:27.304Z,99.12
2018-07-24T02:29:31.687Z,98.98
2018-07-24T02:32:36.002Z,99.10
2018-07-24T02:35:40.310Z,99.26
2018-07-24T02:38:44.631Z,99.13
2018-07-24T02:41:48.975Z,99.02
2018-07-24T02:44:54.313Z,99.47
2018-07-24T02:47:58.740Z,99.06
2018-07-24T02:51:02.999Z,99.13
2018-07-24T02:54:08.093Z,98.85
2018-07-24T02:57:12.513Z,98.98
2018-07-24T03:00:16.895Z,98.79
2018-07-24T03:03:21.428Z,98.95
2018-07-24T03:06:25.720Z,98.84
2018-07-24T03:09:30.071Z,98.61
2018-07-24T03:12:34.633Z,98.62
2018-07-24T03:15:38.918Z,98.68
2018-07-24T03:18:43.274Z,98.96
2018-07-24T03:21:47.561Z,98.88
2018-07-24T03:24:51.985Z,99.11
2018-07-24T03:27:56.292Z,98.69
2018-07-24T03:31:00.605Z,98.82
2018-07-24T03:34:04.877Z,98.83
2018-07-24T03:37:09.264Z,98.76
2018-07-24T03:40:13.573Z,98.63
2018-07-24T03:43:17.851Z,98.73
2018-07-24T03:46:22.356Z,98.66
2018-07-24T03:49:26.657Z,98.85
2018-07-24T03:52:30.995Z,98.71
2018-07-24T03:55:35.417Z,98.62
2018-07-24T03:58:39.900Z,98.42
2018-07-24T04:01:44.187Z,98.39
2018-07-24T04:04:48.472Z,98.34
2018-07-24T04:07:52.846Z,98.49
2018-07-24T04:10:57.129Z,98.18
2018-07-24T04:14:01.765Z,98.21
2018-07-24T04:17:06.125Z,98.26
2018-07-24T04:20:11.053Z,97.99
2018-07-24T04:23:15.350Z,97.95
2018-07-24T04:26:20.126Z,97.66
2018-07-24T04:29:24.534Z,97.45
2018-07-24T04:32:28.984Z,97.39
2018-07-24T04:35:34.127Z,96.88
2018-07-24T04:38:38.420Z,96.40
2018-07-24T04:41:43.094Z,95.67
2018-07-24T04:44:47.593Z,95.94
2018-07-24T04:47:52.024Z,95.93
2018-07-24T04:50:57.021Z,95.06
2018-07-24T04:54:01.366Z,94.68
2018-07-24T04:57:05.835Z,94.59
2018-07-24T05:00:10.372Z,94.18
2018-07-24T05:03:14.785Z,94.00
2018-07-24T05:06:19.373Z,92.98
2018-07-24T05:09:29.279Z,92.81
2018-07-24T05:12:33.948Z,92.28
2018-07-24T05:15:38.313Z,92.45
2018-07-24T05:18:42.818Z,93.17
2018-07-24T05:21:47.819Z,93.00
2018-07-24T05:24:52.471Z,93.58
2018-07-24T05:27:56.712Z,93.57
2018-07-24T05:31:01.804Z,93.02
2018-07-24T05:34:06.397Z,92.99
2018-07-24T05:40:10.925Z,92.41
2018-07-24T05:43:15.972Z,93.31
2018-07-24T05:46:20.323Z,93.47
2018-07-24T05:49:33.627Z,93.49
2018-07-24T05:52:37.986Z,91.96
2018-07-24T05:55:42.576Z,91.23
2018-07-24T05:58:47.167Z,89.27
2018-07-24T06:01:53.105Z,88.27
2018-07-24T06:04:57.690Z,87.85
2018-07-24T06:08:02.191Z,83.57
2018-07-24T06:11:07.008Z,80.39
2018-07-24T06:14:11.907Z,74.15
2018-07-24T06:17:16.473Z,72.22
2018-07-24T06:20:21.471Z,72.47
2018-07-24T06:23:26.144Z,70.32
2018-07-24T06:26:30.526Z,68.55
2018-07-24T06:29:35.050Z,70.42
2018-07-24T06:32:39.705Z,66.45
2018-07-24T06:35:44.586Z,65.83
2018-07-24T06:38:49.405Z,65.16
2018-07-24T06:41:53.828Z,66.15
2018-07-24T06:44:58.213Z,65.18
2018-07-24T06:48:02.601Z,67.00
2018-07-24T06:51:06.965Z,65.17
2018-07-24T06:54:12.603Z,62.08
2018-07-24T06:57:16.889Z,64.53
2018-07-24T07:00:21.718Z,65.09
2018-07-24T07:03:26.108Z,64.64
2018-07-24T07:06:30.569Z,68.35
2018-07-24T07:09:35.129Z,69.37
2018-07-24T07:12:39.576Z,70.27
2018-07-24T07:15:44.133Z,68.16
2018-07-24T07:18:48.797Z,69.68
2018-07-24T07:21:53.658Z,68.43
2018-07-24T07:24:58.023Z,67.95
2018-07-24T07:28:02.478Z,64.60
2018-07-24T07:31:07.601Z,63.48
2018-07-24T07:34:12.051Z,68.00
2018-07-24T07:37:16.523Z,65.85
2018-07-24T07:40:22.209Z,65.76
2018-07-24T07:43:27.061Z,63.26
2018-07-24T07:46:31.547Z,66.71
2018-07-24T07:49:36.098Z,65.70
2018-07-24T07:52:40.788Z,62.51
2018-07-24T07:55:45.094Z,65.28
2018-07-24T07:58:50.140Z,61.52
2018-07-24T08:01:54.597Z,65.17
2018-07-24T08:05:00.200Z,64.58
2018-07-24T08:08:04.710Z,60.29
2018-07-24T08:11:09.940Z,64.12
2018-07-24T08:14:15.380Z,61.92
2018-07-24T08:17:20.193Z,62.85
2018-07-24T08:20:24.753Z,62.64
2018-07-24T08:23:30.372Z,60.67
2018-07-24T08:26:35.803Z,59.37
2018-07-24T08:29:40.571Z,60.18
2018-07-24T08:32:45.266Z,60.49
2018-07-24T08:35:50.577Z,61.18
2018-07-24T08:38:56.251Z,60.03
2018-07-24T08:42:00.871Z,63.77
2018-07-24T08:45:07.133Z,59.83
2018-07-24T08:48:11.827Z,60.64
2018-07-24T08:51:16.459Z,56.52
2018-07-24T08:54:21.293Z,59.91
2018-07-24T08:57:26.073Z,57.04
2018-07-24T09:00:32.675Z,61.57
2018-07-24T09:03:38.131Z,57.56
2018-07-24T09:06:43.129Z,55.57
2018-07-24T09:09:48.991Z,57.76
2018-07-24T09:12:53.772Z,56.18
2018-07-24T09:15:58.557Z,59.89
2018-07-24T09:19:03.476Z,56.58
2018-07-24T09:22:09.103Z,58.47
2018-07-24T09:25:16.057Z,55.12
2018-07-24T09:28:21.555Z,57.13
2018-07-24T09:31:26.534Z,55.34
2018-07-24T09:34:32.175Z,53.90
2018-07-24T09:37:37.162Z,56.39
2018-07-24T09:40:42.218Z,55.00
2018-07-24T09:43:47.019Z,57.14
2018-07-24T09:46:51.591Z,53.74
2018-07-24T09:49:56.190Z,53.23
2018-07-24T09:53:00.647Z,53.12
2018-07-24T09:56:06.058Z,54.43
2018-07-24T09:59:11.098Z,53.34
2018-07-24T10:02:15.721Z,50.28
2018-07-24T10:05:20.521Z,49.63
2018-07-24T10:08:25.523Z,51.79
2018-07-24T10:11:29.828Z,49.01
2018-07-24T10:14:34.124Z,53.26
2018-07-24T10:17:38.477Z,51.50
2018-07-24T10:20:42.896Z,50.46
2018-07-24T10:23:47.313Z,50.05
2018-07-24T10:26:51.781Z,48.37
2018-07-24T10:29:57.060Z,53.79
2018-07-24T10:33:01.326Z,48.53
2018-07-24T10:36:05.822Z,46.87
2018-07-24T10:39:11.986Z,47.13
2018-07-24T10:42:16.754Z,48.06
2018-07-24T10:45:21.443Z,46.68
2018-07-24T10:48:26.019Z,45.87
2018-07-24T10:51:30.611Z,49.98
2018-07-24T10:54:35.329Z,47.18
2018-07-24T10:57:39.832Z,47.32
2018-07-24T11:00:44.316Z,44.83
2018-07-24T11:03:49.183Z,46.15
2018-07-24T11:06:53.658Z,43.34
2018-07-24T11:09:58.694Z,46.72
2018-07-24T11:13:03.555Z,45.45
2018-07-24T11:16:08.635Z,47.38
2018-07-24T11:19:13.281Z,46.39
2018-07-24T11:22:18.155Z,43.30
2018-07-24T11:25:22.848Z,43.24
2018-07-24T11:28:27.484Z,47.50
2018-07-24T11:31:31.713Z,43.34
2018-07-24T11:34:37.085Z,40.44
2018-07-24T11:37:41.520Z,44.40
2018-07-24T11:40:46.266Z,40.44
2018-07-24T11:43:50.978Z,38.89
2018-07-24T11:46:55.589Z,40.69
2018-07-24T11:50:00.000Z,41.64
2018-07-24T11:53:04.814Z,41.67
2018-07-24T11:56:09.823Z,41.08
2018-07-24T11:59:15.229Z,40.21
2018-07-24T12:02:20.526Z,41.33
2018-07-24T12:05:26.027Z,44.22
2018-07-24T12:08:30.808Z,44.30
2018-07-24T12:11:35.711Z,43.18
2018-07-24T12:14:41.101Z,42.46
2018-07-24T12:17:45.737Z,40.12
2018-07-24T12:20:50.260Z,40.93
2018-07-24T12:23:56.158Z,41.04
2018-07-24T12:27:00.943Z,40.33
2018-07-24T12:30:06.058Z,40.51
2018-07-24T12:33:10.706Z,41.11
2018-07-24T12:36:16.741Z,41.07
2018-07-24T12:39:22.307Z,42.89
2018-07-24T12:42:26.787Z,41.83
2018-07-24T12:45:32.435Z,40.67
2018-07-24T12:48:37.489Z,40.30
2018-07-24T12:51:42.676Z,41.13
2018-07-24T12:54:47.299Z,41.82
2018-07-24T12:57:51.756Z,39.76
2018-07-24T13:00:56.416Z,40.12
2018-07-24T13:04:01.065Z,39.63
2018-07-24T13:07:05.870Z,38.97
2018-07-24T13:10:22.751Z,39.38
2018-07-24T13:13:35.018Z,37.98
2018-07-24T13:16:47.975Z,38.37
2018-07-24T13:20:00.172Z,38.13
2018-07-24T13:23:10.819Z,39.95
2018-07-24T13:26:15.852Z,40.10
2018-07-24T13:29:20.764Z,41.02
2018-07-24T13:32:25.212Z,38.46
2018-07-24T13:36:54.058Z,40.89
2018-07-24T13:39:58.732Z,39.71
2018-07-24T13:43:03.325Z,39.09
2018-07-24T13:46:08.296Z,39.07
2018-07-24T13:49:12.657Z,38.66
2018-07-24T13:52:17.281Z,37.83
2018-07-24T13:55:22.473Z,38.67
2018-07-24T13:58:28.500Z,38.54
2018-07-24T14:01:33.361Z,39.62
2018-07-24T14:04:38.016Z,39.58
2018-07-24T14:07:42.772Z,38.10
2018-07-24T14:10:47.324Z,37.60
2018-07-24T14:13:51.901Z,34.62
2018-07-24T14:16:57.020Z,35.35
2018-07-24T14:20:01.767Z,34.68
2018-07-24T14:23:06.496Z,36.80
2018-07-24T14:26:11.663Z,36.01
2018-07-24T14:29:16.674Z,37.84
2018-07-24T14:32:22.075Z,37.26
2018-07-24T14:35:27.604Z,35.50
2018-07-24T14:38:32.222Z,34.82
2018-07-24T14:41:38.075Z,36.49
2018-07-24T14:44:43.243Z,37.32
2018-07-24T14:47:48.701Z,38.80
2018-07-24T14:50:53.656Z,37.50
2018-07-24T14:53:58.074Z,36.68
2018-07-24T14:57:02.494Z,38.12
2018-07-24T15:00:07.008Z,38.40
2018-07-24T15:03:11.409Z,38.55
2018-07-24T15:06:16.973Z,39.33
2018-07-24T15:09:25.624Z,36.72
2018-07-24T15:12:30.043Z,35.29
2018-07-24T15:15:34.884Z,36.37
2018-07-24T15:18:39.393Z,37.92
2018-07-24T15:21:44.729Z,37.65
2018-07-24T15:24:49.476Z,35.59
2018-07-24T15:27:54.062Z,36.92
2018-07-24T15:30:58.900Z,38.03
2018-07-24T15:34:03.725Z,37.00
2018-07-24T15:37:08.201Z,38.60
2018-07-24T15:40:12.780Z,37.12
2018-07-24T15:43:17.508Z,36.18
2018-07-24T15:46:22.170Z,37.19
2018-07-24T15:49:26.661Z,39.35
2018-07-24T15:52:31.157Z,37.50
2018-07-24T15:55:36.009Z,37.07
2018-07-24T15:58:41.269Z,38.15
2018-07-24T16:01:45.602Z,38.09
2018-07-24T16:04:50.115Z,36.45
2018-07-24T16:08:20.598Z,35.75
2018-07-24T16:11:25.008Z,36.38
2018-07-24T16:14:30.295Z,35.94
2018-07-24T16:17:34.713Z,34.45
2018-07-24T16:20:38.873Z,35.78
2018-07-24T16:23:43.550Z,36.17
2018-07-24T16:26:47.943Z,34.09
2018-07-24T16:29:53.108Z,35.17
2018-07-24T16:32:57.523Z,34.98
2018-07-24T16:36:02.068Z,37.22
2018-07-24T16:39:10.382Z,36.16
2018-07-24T16:42:15.865Z,35.20
2018-07-24T16:45:20.321Z,34.81
2018-07-24T16:48:25.197Z,36.29
2018-07-24T16:51:29.643Z,36.67
2018-07-24T16:54:34.109Z,35.81
2018-07-24T16:57:38.504Z,34.23
2018-07-24T17:00:43.074Z,32.71
2018-07-24T17:03:47.574Z,32.62
2018-07-24T17:06:51.952Z,31.07
2018-07-24T17:09:57.431Z,32.31
2018-07-24T17:13:01.814Z,32.08
2018-07-24T17:16:07.202Z,32.65
2018-07-24T17:19:11.621Z,33.77
2018-07-24T17:22:16.032Z,32.87
2018-07-24T17:25:20.369Z,32.92
2018-07-24T17:28:24.757Z,35.76
2018-07-24T17:31:29.048Z,37.44
2018-07-24T17:34:37.956Z,37.02
2018-07-24T17:37:45.287Z,37.43
2018-07-24T17:40:49.783Z,35.49
2018-07-24T17:43:54.171Z,37.98
2018-07-24T17:46:58.630Z,38.35
2018-07-24T17:50:05.456Z,38.54
2018-07-24T17:53:10.102Z,38.93
2018-07-24T17:56:14.795Z,40.50
2018-07-24T17:59:19.160Z,39.90
2018-07-24T18:02:23.612Z,40.68
2018-07-24T18:05:28.069Z,41.06
2018-07-24T18:08:32.520Z,42.17
2018-07-24T18:11:37.171Z,41.99
2018-07-24T18:14:41.705Z,42.43
2018-07-24T18:17:46.136Z,43.23
2018-07-24T18:20:50.684Z,43.88
2018-07-24T18:23:54.955Z,43.80
2018-07-24T18:26:59.860Z,44.42
2018-07-24T18:30:04.324Z,45.11
2018-07-24T18:33:08.714Z,45.88
2018-07-24T18:36:13.113Z,47.38
2018-07-24T18:39:17.901Z,48.52
2018-07-24T18:42:22.348Z,56.11
2018-07-24T18:45:26.769Z,57.38
2018-07-24T18:48:31.157Z,57.11
2018-07-24T18:51:35.547Z,57.31
2018-07-24T18:54:39.909Z,56.45
2018-07-24T18:57:44.255Z,62.82
2018-07-24T19:00:48.590Z,60.92
2018-07-24T19:03:52.988Z,62.31
2018-07-24T19:06:57.510Z,62.79
2018-07-24T19:10:01.859Z,61.94
2018-07-24T19:13:06.455Z,62.17
2018-07-24T19:16:12.154Z,63.34
2018-07-24T19:19:16.610Z,63.28
2018-07-24T19:22:20.998Z,63.99
2018-07-24T19:25:25.668Z,64.39
2018-07-24T19:28:30.252Z,65.55
2018-07-24T19:31:35.530Z,65.98
2018-07-24T19:34:39.857Z,66.79
2018-07-24T19:37:44.246Z,66.93
2018-07-24T19:40:48.681Z,66.91
2018-07-24T19:43:52.987Z,67.42
2018-07-24T19:46:57.345Z,67.21
2018-07-24T19:50:02.643Z,67.15
2018-07-24T19:53:07.356Z,67.70
2018-07-24T19:56:12.644Z,69.36
2018-07-24T19:59:17.109Z,71.56
2018-07-24T20:02:23.535Z,72.90
2018-07-24T20:05:28.216Z,73.71
2018-07-24T20:08:32.825Z,73.01
2018-07-24T20:11:36.981Z,72.33
2018-07-24T20:14:41.439Z,71.75
2018-07-24T20:17:46.622Z,71.65
2018-07-24T20:20:51.414Z,71.07
2018-07-24T20:23:55.770Z,71.51
2018-07-24T20:27:00.714Z,72.22
2018-07-24T20:30:06.073Z,72.87
2018-07-24T20:33:10.476Z,72.57
2018-07-24T20:36:15.166Z,72.42
2018-07-24T20:39:19.662Z,73.02
2018-07-24T20:42:24.262Z,73.52
2018-07-24T20:45:28.757Z,73.19
2018-07-24T20:48:33.373Z,73.14
2018-07-24T20:51:37.925Z,74.18
2018-07-24T20:54:42.313Z,75.09
2018-07-24T20:57:46.609Z,75.55
2018-07-24T21:00:51.221Z,75.61
2018-07-24T21:03:55.613Z,75.92
2018-07-24T21:06:59.953Z,75.73
2018-07-24T21:10:07.966Z,75.72
2018-07-24T21:13:12.253Z,75.71
2018-07-24T21:16:18.438Z,76.58
2018-07-24T21:19:23.930Z,76.74
2018-07-24T21:22:28.392Z,76.71
2018-07-24T21:25:32.807Z,77.16
2018-07-24T21:28:37.074Z,77.15
2018-07-24T21:31:41.382Z,77.74
2018-07-24T21:34:45.820Z,77.25
2018-07-24T21:37:50.170Z,78.05
2018-07-24T21:40:54.509Z,77.76
2018-07-24T21:43:59.074Z,77.95
2018-07-24T21:47:03.721Z,78.84
2018-07-24T21:50:08.095Z,79.28
2018-07-24T21:53:12.720Z,79.05
2018-07-24T21:56:17.811Z,79.11
2018-07-24T21:59:22.706Z,78.36
2018-07-24T22:02:27.331Z,78.35
2018-07-24T22:05:31.845Z,78.53
2018-07-24T22:08:42.742Z,78.77
2018-07-24T22:11:47.074Z,79.28
2018-07-24T22:14:51.423Z,79.21
2018-07-24T22:17:56.358Z,79.23
2018-07-24T22:21:00.689Z,79.33
2018-07-24T22:24:05.017Z,79.45
2018-07-24T22:27:09.326Z,79.17
2018-07-24T22:30:13.521Z,79.77
2018-07-24T22:33:17.881Z,79.43
2018-07-24T22:36:22.212Z,79.09
2018-07-24T22:39:26.550Z,79.71
2018-07-24T22:42:30.857Z,79.97
2018-07-24T22:45:35.298Z,79.82
2018-07-24T22:48:39.562Z,80.18
2018-07-24T22:51:43.865Z,80.35
2018-07-24T22:54:48.269Z,80.32
2018-07-24T22:57:52.937Z,80.38
2018-07-24T23:00:57.232Z,79.75
2018-07-24T23:04:01.530Z,79.97
2018-07-24T23:07:06.122Z,79.69
2018-07-24T23:10:10.438Z,79.43
2018-07-24T23:13:14.730Z,79.14
2018-07-24T23:16:20.156Z,79.65
2018-07-24T23:19:24.579Z,79.49
2018-07-24T23:22:28.906Z,79.18
2018-07-24T23:25:33.258Z,78.77
2018-07-24T23:28:38.618Z,79.21
2018-07-24T23:31:42.648Z,78.94
2018-07-24T23:34:47.290Z,79.03
2018-07-24T23:37:51.561Z,79.07
2018-07-24T23:40:55.941Z,79.67
2018-07-24T23:44:00.858Z,79.84
2018-07-24T23:47:07.129Z,80.07
2018-07-24T23:50:12.073Z,80.45
2018-07-24T23:53:16.355Z,79.34
2018-07-24T23:56:20.794Z,80.18
2018-07-24T23:59:25.125Z,79.72
